• pl
  • eng

Awiacja
WIADOMOŚCI
ostatnia aktualizacja: 11.01.2019 18:40
Szanowni Państwo,

uprzejmie informujemy, że z dniem 01.01.2019 roku z obszaru MOLC zostanie wyłączone BPM we Wrocławiu. Jego zadania zostaną przejęte przez BPM w Krakowie.

TAF FC 06:30 23.01.2019
  • WIND
  • SIGNIFICANT EURO
  • SIGNIFICANT
  • SIGMET
  • AIRMET
  • TAF FC
  • TAF FT
  • METAR GG30
  • METAR GG00


TAF EPLB 230530Z 2306/2315 08010KT 9999 BKN020
PROB40 2306/2310 4000 -SN BR BKN010=

TAF EPRA 230700Z 2306/2315 10010KT 9999 BKN017
PROB40 2307/2310 BKN010=

TAF EPSY 230643Z 2306/2315 09006KT 5000 BR NSC
BECMG 2307/2309 CAVOK=

TAF EPZG 230530Z 2306/2315 08006KT 1200 BR OVC004
BECMG 2306/2308 2000 BR OVC007
BECMG 2308/2310 5000 BR BKN010
BECMG 2310/2313 BKN015=
Awiacja.imgw.pl jest pogodowym serwisem informacyjnym
Instytutu Meteorologii i Gospodarki Wodnej Państwowego Instytutu Badawczego.
Copyright IMGW PIB 2009-2011© Wszelkie prawa zastrzeżone.